createdAt,value
2022-08-22T00:01:43.563Z,50.30
2022-08-22T00:02:44.327Z,50.10
2022-08-22T00:02:48.773Z,51.80
2022-08-22T00:03:04.029Z,50.70
2022-08-22T00:04:33.373Z,50.30
2022-08-22T00:07:21.823Z,50.30
2022-08-22T00:09:54.309Z,50.40
2022-08-22T00:12:23.817Z,50.40
2022-08-22T00:14:58.530Z,50.40
2022-08-22T00:17:44.141Z,50.50
2022-08-22T00:20:28.173Z,50.60
2022-08-22T00:23:19.438Z,50.60
2022-08-22T00:26:13.089Z,50.70
2022-08-22T00:28:44.975Z,50.70
2022-08-22T00:31:35.809Z,50.70
2022-08-22T00:34:23.057Z,50.80
2022-08-22T00:37:21.000Z,50.80
2022-08-22T00:40:03.173Z,50.90
2022-08-22T00:42:48.857Z,50.80
2022-08-22T00:45:38.349Z,50.80
2022-08-22T00:48:24.295Z,50.90
2022-08-22T00:51:03.127Z,51.00
2022-08-22T00:54:04.532Z,51.00
2022-08-22T00:56:42.506Z,51.10
2022-08-22T00:59:24.774Z,50.90
2022-08-22T01:02:22.297Z,51.00
2022-08-22T01:05:10.424Z,51.10
2022-08-22T01:07:43.218Z,51.10
2022-08-22T01:10:33.351Z,51.20
2022-08-22T01:13:18.022Z,51.30
2022-08-22T01:15:45.021Z,51.40
2022-08-22T01:18:17.324Z,51.30
2022-08-22T01:21:13.560Z,51.50
2022-08-22T01:23:56.306Z,51.60
2022-08-22T01:26:53.247Z,51.70
2022-08-22T01:29:35.014Z,51.80
2022-08-22T01:32:29.155Z,51.80
2022-08-22T01:35:32.481Z,52.00
2022-08-22T01:38:20.315Z,51.90
2022-08-22T01:40:53.727Z,51.80
2022-08-22T01:43:59.193Z,51.80
2022-08-22T01:46:24.238Z,51.80
2022-08-22T01:49:32.209Z,51.70
2022-08-22T01:52:12.749Z,51.70
2022-08-22T01:54:50.635Z,51.60
2022-08-22T01:57:19.281Z,51.70
2022-08-22T01:59:54.956Z,51.70
2022-08-22T02:02:36.639Z,51.70
2022-08-22T02:05:18.982Z,51.70
2022-08-22T02:07:54.718Z,51.70
2022-08-22T02:10:48.178Z,51.70
2022-08-22T02:13:14.832Z,51.60
2022-08-22T02:15:41.511Z,51.50
2022-08-22T02:18:18.056Z,51.50
2022-08-22T02:20:47.712Z,51.70
2022-08-22T02:23:29.538Z,51.70
2022-08-22T02:26:02.214Z,51.70
2022-08-22T02:28:34.574Z,51.70
2022-08-22T02:31:06.205Z,51.70
2022-08-22T02:33:45.683Z,51.70
2022-08-22T02:36:30.477Z,52.00
2022-08-22T02:39:21.809Z,51.80
2022-08-22T02:41:55.554Z,51.80
2022-08-22T02:44:33.566Z,51.80
2022-08-22T02:47:10.451Z,51.90
2022-08-22T02:49:54.099Z,52.00
2022-08-22T02:52:40.123Z,52.00
2022-08-22T02:55:11.909Z,52.00
2022-08-22T02:57:45.450Z,52.20
2022-08-22T03:00:31.334Z,52.10
2022-08-22T03:03:02.399Z,52.20
2022-08-22T03:05:37.830Z,52.20
2022-08-22T03:08:14.166Z,52.20
2022-08-22T03:10:46.050Z,52.30
2022-08-22T03:13:25.266Z,52.30
2022-08-22T03:16:02.342Z,52.40
2022-08-22T03:18:53.961Z,52.50
2022-08-22T03:21:43.239Z,52.50
2022-08-22T03:24:23.738Z,52.60
2022-08-22T03:27:11.038Z,52.60
2022-08-22T03:29:44.094Z,52.70
2022-08-22T03:32:14.526Z,52.60
2022-08-22T03:35:05.245Z,52.80
2022-08-22T03:37:45.271Z,52.80
2022-08-22T03:40:52.921Z,52.80
2022-08-22T03:43:38.606Z,52.90
2022-08-22T03:46:32.348Z,52.90
2022-08-22T03:49:14.271Z,52.90
2022-08-22T03:51:55.287Z,53.00
2022-08-22T03:54:52.237Z,53.00
2022-08-22T03:57:40.070Z,53.00
2022-08-22T04:00:35.211Z,53.00
2022-08-22T04:03:43.113Z,53.10
2022-08-22T04:06:36.179Z,53.10
2022-08-22T04:09:26.749Z,53.10
2022-08-22T04:12:08.688Z,53.20
2022-08-22T04:14:57.987Z,53.10
2022-08-22T04:17:31.329Z,53.30
2022-08-22T04:20:29.255Z,53.20
2022-08-22T04:23:11.326Z,53.40
2022-08-22T04:25:42.726Z,53.40
2022-08-22T04:28:17.134Z,53.30
2022-08-22T04:30:56.537Z,53.30
2022-08-22T04:33:25.673Z,53.40
2022-08-22T04:36:13.333Z,53.30
2022-08-22T04:38:44.843Z,53.30
2022-08-22T04:41:15.723Z,53.30
2022-08-22T04:43:50.886Z,53.30
2022-08-22T04:46:38.798Z,53.30
2022-08-22T04:49:11.295Z,53.40
2022-08-22T04:51:39.993Z,53.30
2022-08-22T04:54:13.053Z,53.30
2022-08-22T04:57:41.203Z,53.20
2022-08-22T05:00:10.389Z,53.50
2022-08-22T05:02:39.897Z,53.40
2022-08-22T05:05:13.770Z,53.60
2022-08-22T05:07:53.818Z,53.80
2022-08-22T05:10:24.832Z,54.00
2022-08-22T05:13:00.571Z,54.00
2022-08-22T05:15:33.243Z,54.10
2022-08-22T05:18:08.590Z,54.20
2022-08-22T05:20:36.941Z,54.20
2022-08-22T05:23:29.067Z,54.00
2022-08-22T05:26:01.332Z,54.00
2022-08-22T05:28:32.157Z,53.80
2022-08-22T05:30:59.118Z,53.80
2022-08-22T05:33:32.741Z,53.70
2022-08-22T05:36:06.007Z,53.70
2022-08-22T05:38:40.473Z,53.70
2022-08-22T05:41:10.084Z,53.70
2022-08-22T05:43:40.104Z,53.60
2022-08-22T05:46:09.969Z,53.50
2022-08-22T05:48:42.737Z,53.50
2022-08-22T05:51:25.318Z,53.50
2022-08-22T05:54:04.960Z,53.40
2022-08-22T05:56:37.589Z,53.30
2022-08-22T05:59:13.032Z,53.20
2022-08-22T06:01:52.079Z,53.20
2022-08-22T06:04:51.228Z,53.10
2022-08-22T06:07:35.953Z,53.10
2022-08-22T06:10:02.621Z,53.00
2022-08-22T06:12:36.662Z,52.90
2022-08-22T06:15:27.407Z,52.80
2022-08-22T06:18:05.170Z,52.80
2022-08-22T06:20:39.711Z,52.60
2022-08-22T06:23:06.725Z,52.60
2022-08-22T06:25:35.995Z,52.60
2022-08-22T06:28:11.621Z,52.40
2022-08-22T06:30:39.542Z,52.40
2022-08-22T06:33:12.887Z,52.30
2022-08-22T06:36:05.565Z,52.30
2022-08-22T06:38:37.462Z,52.20
2022-08-22T06:41:07.626Z,52.20
2022-08-22T06:43:39.229Z,52.10
2022-08-22T06:46:07.254Z,52.00
2022-08-22T06:48:35.682Z,51.90
2022-08-22T06:51:04.100Z,52.00
2022-08-22T06:53:47.763Z,51.90
2022-08-22T06:56:22.061Z,51.70
2022-08-22T06:58:50.460Z,51.60
2022-08-22T07:01:27.836Z,51.60
2022-08-22T07:03:59.630Z,52.00
2022-08-22T07:06:32.353Z,51.30
2022-08-22T07:08:59.251Z,51.40
2022-08-22T07:11:31.690Z,51.30
2022-08-22T07:14:14.094Z,51.30
2022-08-22T07:16:55.110Z,51.00
2022-08-22T07:19:34.764Z,50.90
2022-08-22T07:22:21.815Z,50.70
2022-08-22T07:24:52.470Z,50.30
2022-08-22T07:27:48.933Z,50.20
2022-08-22T07:30:27.994Z,49.90
2022-08-22T07:33:26.244Z,49.70
2022-08-22T07:36:02.340Z,49.40
2022-08-22T07:38:43.026Z,49.00
2022-08-22T07:41:20.676Z,48.80
2022-08-22T07:44:00.174Z,48.60
2022-08-22T07:46:37.015Z,48.60
2022-08-22T07:49:14.457Z,48.30
2022-08-22T07:51:47.457Z,48.50
2022-08-22T07:54:37.286Z,48.10
2022-08-22T07:57:28.830Z,47.70
2022-08-22T07:59:56.805Z,48.20
2022-08-22T08:02:24.629Z,47.40
2022-08-22T08:04:53.244Z,46.20
2022-08-22T08:07:23.336Z,45.80
2022-08-22T08:09:54.241Z,46.20
2022-08-22T08:12:29.850Z,46.30
2022-08-22T08:14:56.943Z,46.20
2022-08-22T08:17:30.152Z,46.20
2022-08-22T08:20:02.542Z,46.50
2022-08-22T08:22:29.742Z,46.40
2022-08-22T08:24:57.897Z,46.70
2022-08-22T08:27:50.208Z,47.00
2022-08-22T08:30:29.449Z,47.20
2022-08-22T08:33:24.756Z,47.00
2022-08-22T08:36:18.250Z,46.80
2022-08-22T08:38:58.043Z,46.70
2022-08-22T08:41:33.766Z,45.80
2022-08-22T08:44:32.640Z,45.20
2022-08-22T08:47:09.856Z,44.10
2022-08-22T08:49:59.320Z,45.00
2022-08-22T08:52:31.835Z,43.20
2022-08-22T08:55:19.796Z,44.30
2022-08-22T08:58:07.248Z,44.50
2022-08-22T09:01:03.542Z,43.30
2022-08-22T09:03:53.564Z,44.20
2022-08-22T09:06:35.578Z,43.00
2022-08-22T09:09:19.021Z,43.30
2022-08-22T09:11:59.304Z,42.60
2022-08-22T09:15:14.475Z,42.90
2022-08-22T09:17:51.116Z,42.80
2022-08-22T09:20:47.444Z,42.70
2022-08-22T09:23:47.874Z,42.30
2022-08-22T09:26:35.195Z,42.10
2022-08-22T09:29:29.358Z,42.10
2022-08-22T09:35:25.233Z,39.40
2022-08-22T09:38:09.001Z,40.40
2022-08-22T09:40:49.146Z,41.50
2022-08-22T09:43:37.606Z,40.80
2022-08-22T09:46:31.486Z,40.50
2022-08-22T09:49:33.592Z,40.40
2022-08-22T09:52:15.618Z,40.90
2022-08-22T09:55:16.188Z,42.40
2022-08-22T09:58:23.556Z,42.80
2022-08-22T10:00:58.758Z,43.30
2022-08-22T10:03:51.511Z,43.90
2022-08-22T10:06:33.204Z,44.60
2022-08-22T10:09:25.290Z,44.90
2022-08-22T10:12:12.435Z,44.90
2022-08-22T10:15:32.334Z,44.50
2022-08-22T10:18:17.412Z,43.10
2022-08-22T10:20:50.765Z,42.80
2022-08-22T10:23:23.277Z,43.20
2022-08-22T10:26:00.136Z,43.30
2022-08-22T10:28:44.157Z,42.50
2022-08-22T10:31:29.789Z,42.50
2022-08-22T10:34:20.809Z,42.20
2022-08-22T10:37:13.739Z,41.10
2022-08-22T10:39:57.942Z,41.20
2022-08-22T10:42:35.281Z,41.60
2022-08-22T10:45:35.837Z,41.70
2022-08-22T10:48:25.636Z,40.30
2022-08-22T10:51:01.920Z,40.90
2022-08-22T10:54:06.880Z,40.70
2022-08-22T10:56:40.728Z,40.70
2022-08-22T10:59:29.033Z,40.60
2022-08-22T11:02:05.485Z,39.80
2022-08-22T11:04:51.059Z,39.50
2022-08-22T11:07:48.889Z,38.40
2022-08-22T11:10:39.133Z,37.70
2022-08-22T11:13:26.895Z,37.90
2022-08-22T11:16:26.183Z,39.10
2022-08-22T11:19:15.081Z,37.40
2022-08-22T11:22:01.461Z,39.20
2022-08-22T11:24:55.809Z,38.80
2022-08-22T11:27:41.297Z,38.40
2022-08-22T11:30:18.775Z,38.40
2022-08-22T11:33:04.785Z,38.90
2022-08-22T11:35:54.512Z,37.60
2022-08-22T11:38:36.240Z,38.40
2022-08-22T11:41:17.741Z,38.70
2022-08-22T11:43:56.445Z,38.90
2022-08-22T11:46:39.142Z,40.00
2022-08-22T11:49:21.069Z,40.20
2022-08-22T11:52:17.214Z,40.30
2022-08-22T11:55:22.055Z,39.50
2022-08-22T11:58:10.347Z,39.70
2022-08-22T12:00:58.498Z,40.20
2022-08-22T12:03:44.104Z,40.50
2022-08-22T12:07:00.611Z,40.20
2022-08-22T12:09:31.882Z,40.30
2022-08-22T12:12:08.892Z,40.70
2022-08-22T12:14:49.639Z,39.30
2022-08-22T12:17:51.172Z,38.30
2022-08-22T12:20:38.847Z,38.00
2022-08-22T12:23:48.999Z,37.60
2022-08-22T12:26:32.130Z,37.80
2022-08-22T12:29:49.013Z,36.70
2022-08-22T12:32:34.005Z,38.00
2022-08-22T12:35:18.981Z,39.40
2022-08-22T12:37:53.131Z,39.50
2022-08-22T12:40:44.811Z,39.40
2022-08-22T12:43:34.230Z,39.20
2022-08-22T12:46:36.414Z,38.90
2022-08-22T12:49:44.964Z,39.40
2022-08-22T12:52:40.632Z,39.10
2022-08-22T12:55:20.668Z,39.30
2022-08-22T12:57:58.936Z,37.60
2022-08-22T13:00:30.365Z,38.00
2022-08-22T13:02:59.585Z,38.40
2022-08-22T13:05:28.409Z,38.40
2022-08-22T13:08:04.542Z,37.00
2022-08-22T13:10:53.562Z,37.20
2022-08-22T13:13:36.618Z,37.30
2022-08-22T13:16:09.122Z,36.40
2022-08-22T13:19:07.757Z,36.80
2022-08-22T13:21:40.042Z,37.40
2022-08-22T13:24:16.888Z,37.20
2022-08-22T13:26:53.737Z,38.60
2022-08-22T13:29:44.959Z,38.30
2022-08-22T13:32:39.899Z,38.50
2022-08-22T13:35:24.473Z,38.70
2022-08-22T13:37:56.059Z,38.80
2022-08-22T13:40:29.371Z,38.90
2022-08-22T13:43:11.063Z,39.20
2022-08-22T13:45:38.817Z,39.30
2022-08-22T13:48:13.810Z,38.90
2022-08-22T13:51:04.656Z,38.00
2022-08-22T13:53:49.746Z,38.00
2022-08-22T13:56:47.179Z,38.50
2022-08-22T13:59:50.983Z,39.00
2022-08-22T14:02:54.587Z,38.00
2022-08-22T14:05:31.236Z,37.70
2022-08-22T14:08:02.531Z,37.60
2022-08-22T14:10:32.367Z,36.70
2022-08-22T14:13:00.331Z,36.30
2022-08-22T14:15:41.581Z,37.00
2022-08-22T14:18:36.391Z,36.90
2022-08-22T14:21:28.940Z,36.70
2022-08-22T14:24:25.886Z,36.20
2022-08-22T14:27:05.466Z,36.60
2022-08-22T14:29:52.467Z,36.90
2022-08-22T14:32:23.361Z,37.20
2022-08-22T14:35:31.416Z,37.20
2022-08-22T14:38:17.511Z,37.20
2022-08-22T14:40:46.247Z,37.20
2022-08-22T14:43:50.459Z,35.50
2022-08-22T14:46:29.353Z,36.50
2022-08-22T14:49:18.430Z,36.60
2022-08-22T14:51:50.942Z,36.30
2022-08-22T14:54:21.495Z,36.60
2022-08-22T14:56:50.440Z,36.70
2022-08-22T14:59:33.112Z,37.50
2022-08-22T15:02:30.000Z,37.30
2022-08-22T15:05:01.527Z,37.70
2022-08-22T15:07:34.224Z,38.10
2022-08-22T15:10:03.791Z,38.30
2022-08-22T15:12:39.092Z,38.20
2022-08-22T15:15:12.923Z,38.50
2022-08-22T15:17:46.276Z,38.70
2022-08-22T15:20:34.050Z,38.60
2022-08-22T15:23:10.147Z,38.00
2022-08-22T15:25:41.137Z,37.90
2022-08-22T15:28:14.084Z,37.80
2022-08-22T15:30:47.894Z,38.10
2022-08-22T15:33:29.436Z,38.30
2022-08-22T15:36:08.042Z,38.20
2022-08-22T15:38:45.821Z,38.60
2022-08-22T15:41:36.557Z,38.80
2022-08-22T15:44:30.834Z,38.80
2022-08-22T15:47:27.654Z,38.60
2022-08-22T15:50:05.391Z,38.50
2022-08-22T15:52:36.060Z,38.50
2022-08-22T15:55:07.666Z,38.60
2022-08-22T15:57:38.980Z,38.20
2022-08-22T16:00:41.423Z,38.10
2022-08-22T16:03:29.791Z,38.20
2022-08-22T16:06:00.446Z,38.20
2022-08-22T16:08:49.658Z,38.00
2022-08-22T16:11:33.618Z,37.50
2022-08-22T16:14:22.611Z,38.10
2022-08-22T16:17:08.175Z,38.30
2022-08-22T16:19:35.697Z,38.30
2022-08-22T16:22:05.982Z,38.80
2022-08-22T16:24:36.865Z,38.80
2022-08-22T16:27:36.270Z,39.10
2022-08-22T16:30:08.592Z,38.90
2022-08-22T16:32:35.370Z,38.80
2022-08-22T16:35:02.370Z,38.60
2022-08-22T16:37:44.380Z,38.70
2022-08-22T16:40:20.311Z,38.70
2022-08-22T16:42:51.646Z,38.70
2022-08-22T16:45:30.763Z,39.00
2022-08-22T16:47:58.378Z,39.10
2022-08-22T16:50:32.982Z,39.10
2022-08-22T16:52:59.720Z,39.30
2022-08-22T16:55:29.583Z,39.30
2022-08-22T16:58:29.557Z,39.60
2022-08-22T17:01:23.592Z,39.60
2022-08-22T17:04:11.009Z,39.80
2022-08-22T17:06:50.835Z,39.80
2022-08-22T17:09:33.891Z,39.80
2022-08-22T17:12:03.322Z,39.60
2022-08-22T17:14:58.279Z,39.60
2022-08-22T17:18:11.544Z,39.50
2022-08-22T17:21:00.272Z,39.60
2022-08-22T17:23:54.884Z,39.70
2022-08-22T17:26:41.110Z,39.80
2022-08-22T17:29:39.355Z,40.00
2022-08-22T17:32:11.877Z,40.20
2022-08-22T17:34:49.680Z,40.40
2022-08-22T17:37:39.266Z,40.50
2022-08-22T17:40:27.610Z,40.70
2022-08-22T17:43:20.454Z,40.80
2022-08-22T17:46:05.570Z,41.10
2022-08-22T17:48:48.210Z,41.30
2022-08-22T17:51:34.623Z,41.50
2022-08-22T17:54:03.311Z,41.60
2022-08-22T17:56:41.551Z,41.70
2022-08-22T17:59:25.939Z,42.00
2022-08-22T18:02:01.316Z,42.00
2022-08-22T18:04:31.631Z,42.00
2022-08-22T18:07:21.995Z,42.10
2022-08-22T18:09:59.466Z,42.40
2022-08-22T18:12:39.458Z,42.40
2022-08-22T18:15:13.466Z,42.50
2022-08-22T18:17:57.098Z,42.60
2022-08-22T18:20:51.836Z,42.70
2022-08-22T18:23:38.964Z,42.90
2022-08-22T18:26:44.475Z,42.80
2022-08-22T18:29:20.257Z,43.20
2022-08-22T18:31:55.030Z,43.30
2022-08-22T18:34:43.973Z,43.40
2022-08-22T18:37:35.739Z,43.50
2022-08-22T18:40:13.736Z,43.60
2022-08-22T18:42:47.810Z,43.50
2022-08-22T18:45:43.878Z,43.80
2022-08-22T18:48:27.975Z,43.80
2022-08-22T18:51:24.331Z,44.00
2022-08-22T18:54:13.269Z,44.10
2022-08-22T18:56:51.657Z,44.30
2022-08-22T18:59:34.611Z,44.30
2022-08-22T19:02:25.969Z,44.70
2022-08-22T19:05:15.364Z,44.90
2022-08-22T19:08:29.862Z,44.90
2022-08-22T19:10:59.375Z,45.20
2022-08-22T19:13:38.622Z,45.10
2022-08-22T19:16:48.236Z,45.50
2022-08-22T19:19:23.872Z,45.60
2022-08-22T19:22:20.818Z,45.60
2022-08-22T19:25:10.831Z,45.70
2022-08-22T19:28:05.758Z,45.70
2022-08-22T19:30:51.731Z,45.60
2022-08-22T19:33:38.391Z,45.70
2022-08-22T19:36:13.754Z,45.70
2022-08-22T19:38:57.630Z,45.90
2022-08-22T19:41:37.744Z,46.10
2022-08-22T19:44:04.714Z,46.10
2022-08-22T19:46:40.610Z,46.00
2022-08-22T19:49:24.929Z,46.30
2022-08-22T19:52:13.895Z,46.40
2022-08-22T19:54:57.802Z,46.50
2022-08-22T19:57:36.539Z,46.40
2022-08-22T20:00:32.651Z,46.40
2022-08-22T20:03:34.958Z,46.30
2022-08-22T20:06:42.485Z,46.40
2022-08-22T20:09:38.861Z,46.30
2022-08-22T20:12:15.707Z,46.40
2022-08-22T20:14:44.920Z,46.30
2022-08-22T20:17:38.849Z,46.30
2022-08-22T20:20:35.575Z,46.50
2022-08-22T20:23:15.722Z,46.40
2022-08-22T20:25:50.226Z,46.50
2022-08-22T20:28:46.948Z,46.60
2022-08-22T20:31:22.923Z,46.70
2022-08-22T20:33:53.139Z,46.70
2022-08-22T20:36:28.885Z,46.70
2022-08-22T20:39:03.711Z,46.80
2022-08-22T20:41:35.613Z,47.00
2022-08-22T20:44:15.861Z,46.70
2022-08-22T20:46:55.337Z,47.00
2022-08-22T20:49:31.991Z,47.10
2022-08-22T20:52:02.974Z,47.40
2022-08-22T20:54:38.261Z,47.40
2022-08-22T20:57:17.743Z,47.50
2022-08-22T21:00:00.773Z,47.60
2022-08-22T21:02:39.102Z,47.70
2022-08-22T21:05:07.652Z,47.80
2022-08-22T21:07:45.342Z,47.70
2022-08-22T21:10:49.900Z,48.10
2022-08-22T21:13:21.427Z,48.30
2022-08-22T21:15:58.519Z,48.10
2022-08-22T21:18:31.817Z,48.10
2022-08-22T21:21:34.358Z,48.20
2022-08-22T21:24:04.499Z,48.50
2022-08-22T21:26:40.446Z,48.40
2022-08-22T21:29:13.251Z,48.40
2022-08-22T21:31:49.019Z,48.50
2022-08-22T21:34:35.528Z,48.50
2022-08-22T21:37:24.032Z,48.60
2022-08-22T21:39:59.905Z,48.90
2022-08-22T21:42:36.449Z,48.80
2022-08-22T21:45:28.180Z,49.00
2022-08-22T21:47:54.944Z,49.10
2022-08-22T21:50:23.252Z,48.90
2022-08-22T21:52:56.060Z,49.20
2022-08-22T21:55:30.236Z,49.20
2022-08-22T21:58:10.296Z,49.30
2022-08-22T22:00:41.744Z,49.20
2022-08-22T22:03:18.058Z,49.30
2022-08-22T22:05:44.745Z,49.40
2022-08-22T22:08:12.055Z,49.50
2022-08-22T22:10:41.445Z,49.60
2022-08-22T22:13:08.980Z,49.70
2022-08-22T22:15:44.002Z,49.70
2022-08-22T22:18:13.294Z,49.90
2022-08-22T22:20:40.727Z,49.90
2022-08-22T22:23:08.224Z,49.90
2022-08-22T22:25:40.187Z,50.10
2022-08-22T22:28:13.825Z,50.10
2022-08-22T22:30:40.586Z,50.30
2022-08-22T22:33:07.302Z,50.20
2022-08-22T22:35:34.389Z,50.40
2022-08-22T22:38:01.885Z,50.40
2022-08-22T22:40:28.946Z,50.40
2022-08-22T22:42:55.897Z,50.40
2022-08-22T22:45:22.551Z,50.50
2022-08-22T22:47:49.220Z,50.50
2022-08-22T22:50:15.907Z,50.50
2022-08-22T22:52:42.832Z,50.60
2022-08-22T22:55:09.810Z,50.50
2022-08-22T22:57:42.360Z,50.60
2022-08-22T23:00:11.040Z,50.60
2022-08-22T23:02:37.798Z,50.70
2022-08-22T23:05:05.251Z,50.60
2022-08-22T23:07:33.747Z,50.70
2022-08-22T23:10:01.438Z,50.70
2022-08-22T23:12:29.026Z,50.80
2022-08-22T23:14:55.757Z,50.70
2022-08-22T23:17:22.895Z,50.80
2022-08-22T23:19:50.885Z,51.40
2022-08-22T23:22:17.831Z,50.90
2022-08-22T23:24:44.817Z,50.90
2022-08-22T23:27:12.027Z,51.10
2022-08-22T23:29:42.905Z,51.20
2022-08-22T23:32:11.213Z,51.30
2022-08-22T23:34:45.965Z,51.20
2022-08-22T23:37:16.408Z,51.30
2022-08-22T23:39:44.438Z,51.30
2022-08-22T23:42:12.756Z,51.30
2022-08-22T23:44:41.221Z,51.50
2022-08-22T23:47:09.412Z,51.70
2022-08-22T23:49:36.988Z,51.70
2022-08-22T23:52:04.532Z,51.80
2022-08-22T23:54:31.514Z,51.70
2022-08-22T23:57:00.768Z,52.00
2022-08-22T23:59:33.989Z,52.10
